Time;durP1;ratioP1;P1;durP2;ratioP2;P2;SDS_P1;SDS_P2;PMS_P1;PMS_P2;Temp;Humidity;BMP_temperature;BMP_pressure;BME280_temperature;BME280_humidity;BME280_pressure;Samples;Min_cycle;Max_cycle;Signal;HPM_P1;HPM_P2
2023/02/19 00:01:33;;;;;;;;;;;10.40;99.90;;;;;;5041024;28;19993;-77
2023/02/19 00:04:01;;;;;;;;;;;10.40;99.90;;;;;;5030766;28;19964;-76
2023/02/19 00:06:28;;;;;;;;;;;10.40;99.90;;;;;;5029998;28;20315;-75
2023/02/19 00:08:55;;;;;;;;;;;10.40;99.90;;;;;;5031518;28;19936;-76
2023/02/19 00:11:23;;;;;;;;;;;10.40;99.90;;;;;;5030462;28;20040;-77
2023/02/19 00:13:51;;;;;;;;;;;10.40;99.90;;;;;;5032621;28;20314;-76
2023/02/19 00:16:19;;;;;;;;;;;10.40;99.90;;;;;;5028550;28;19929;-75
2023/02/19 00:18:46;;;;;;;;;;;10.40;99.90;;;;;;5027591;28;19932;-75
2023/02/19 00:21:13;;;;;;;;;;;10.40;99.90;;;;;;5030495;28;20715;-76
2023/02/19 00:23:40;;;;;;;;;;;10.40;99.90;;;;;;5028292;28;19955;-76
2023/02/19 00:26:07;;;;;;;;;;;10.40;99.90;;;;;;5030139;28;19929;-75
2023/02/19 00:28:34;;;;;;;;;;;10.40;99.90;;;;;;5027829;28;19933;-76
2023/02/19 00:31:06;;;;;;;;;;;10.40;99.90;;;;;;5030437;28;19925;-78
2023/02/19 00:33:33;;;;;;;;;;;10.40;99.90;;;;;;5026666;28;19935;-77
2023/02/19 00:36:00;;;;;;;;;;;10.40;99.90;;;;;;5029378;28;20475;-78
2023/02/19 00:38:27;;;;;;;;;;;10.40;99.90;;;;;;5030223;28;20323;-77
2023/02/19 00:40:53;;;;;;;;;;;10.40;99.90;;;;;;5032717;28;20319;-76
2023/02/19 00:43:20;;;;;;;;;;;10.30;99.90;;;;;;5028983;28;20381;-76
2023/02/19 00:45:47;;;;;;;;;;;10.20;99.90;;;;;;5034300;28;20149;-77
2023/02/19 00:48:15;;;;;;;;;;;10.30;99.90;;;;;;5031708;28;19933;-77
2023/02/19 00:50:41;;;;;;;;;;;10.20;99.90;;;;;;5033805;28;19932;-76
2023/02/19 00:53:08;;;;;;;;;;;10.20;99.90;;;;;;5031244;28;19928;-76
2023/02/19 00:55:35;;;;;;;;;;;10.30;99.90;;;;;;5030539;28;20059;-76
2023/02/19 00:58:01;;;;;;;;;;;10.30;99.90;;;;;;5032230;28;19933;-76
2023/02/19 01:00:28;;;;;;;;;;;10.30;99.90;;;;;;5030583;28;19936;-76
2023/02/19 01:02:54;;;;;;;;;;;10.30;99.90;;;;;;5029376;28;19925;-73
2023/02/19 01:05:22;;;;;;;;;;;10.30;99.90;;;;;;5034792;28;19933;-74
2023/02/19 01:07:49;;;;;;;;;;;10.20;99.90;;;;;;5032250;28;19936;-75
2023/02/19 01:10:16;;;;;;;;;;;10.30;99.90;;;;;;5030250;28;20012;-77
2023/02/19 01:12:42;;;;;;;;;;;10.30;99.90;;;;;;5032071;28;20304;-76
2023/02/19 01:15:09;;;;;;;;;;;10.30;99.90;;;;;;5028051;28;20410;-77
2023/02/19 01:17:36;;;;;;;;;;;10.20;99.90;;;;;;5031198;28;20863;-76
2023/02/19 01:20:03;;;;;;;;;;;10.20;99.90;;;;;;5031700;28;19944;-74
2023/02/19 01:22:31;;;;;;;;;;;10.20;99.90;;;;;;5030449;28;19925;-77
2023/02/19 01:24:57;;;;;;;;;;;10.20;99.90;;;;;;5030896;28;20023;-73
2023/02/19 01:27:24;;;;;;;;;;;10.20;99.90;;;;;;5029400;28;19932;-74
2023/02/19 01:29:51;;;;;;;;;;;10.20;99.90;;;;;;5031318;28;20296;-76
2023/02/19 01:32:17;;;;;;;;;;;10.20;99.90;;;;;;5030490;28;19933;-74
2023/02/19 01:34:44;;;;;;;;;;;10.20;99.90;;;;;;5032229;28;20342;-75
2023/02/19 01:37:11;;;;;;;;;;;10.10;99.90;;;;;;5032806;28;20037;-74
2023/02/19 01:39:39;;;;;;;;;;;10.10;99.90;;;;;;5032312;28;19925;-77
2023/02/19 01:42:11;;;;;;;;;;;10.10;99.90;;;;;;5029883;28;20571;-75
2023/02/19 01:44:56;;;;;;;;;;;10.10;99.90;;;;;;5031017;28;19952;-75
2023/02/19 01:47:23;;;;;;;;;;;10.10;99.90;;;;;;5030353;28;19929;-76
2023/02/19 01:49:51;;;;;;;;;;;10.10;99.90;;;;;;5031192;28;19935;-75
2023/02/19 01:52:20;;;;;;;;;;;10.10;99.90;;;;;;5029122;28;19932;-76
2023/02/19 01:54:49;;;;;;;;;;;10.10;99.90;;;;;;5031211;28;20451;-76
2023/02/19 01:57:18;;;;;;;;;;;10.10;99.90;;;;;;5030459;28;19940;-75
2023/02/19 01:59:45;;;;;;;;;;;10.10;99.90;;;;;;5032104;28;19939;-75
2023/02/19 02:02:12;;;;;;;;;;;10.10;99.90;;;;;;5029002;28;19929;-75
2023/02/19 02:04:39;;;;;;;;;;;10.10;99.90;;;;;;5027749;28;19931;-76
2023/02/19 02:10:18;;;;;;;;;;;10.10;99.90;;;;;;5028737;28;20043;-75
2023/02/19 02:12:39;;;;;;;;;;;10.10;99.90;;;;;;5022927;28;19944;-75
2023/02/19 02:15:07;;;;;;;;;;;10.10;99.90;;;;;;5025594;28;19929;-74
2023/02/19 02:17:37;;;;;;;;;;;10.10;99.90;;;;;;5025331;28;20308;-75
2023/02/19 02:20:13;;;;;;;;;;;10.10;99.90;;;;;;5027893;28;19939;-74
2023/02/19 02:22:43;;;;;;;;;;;10.10;99.90;;;;;;5025554;28;20416;-75
2023/02/19 02:25:33;;;;;;;;;;;10.10;99.90;;;;;;5028443;28;19929;-77
2023/02/19 02:28:05;;;;;;;;;;;10.10;99.90;;;;;;5027287;28;19933;-75
2023/02/19 02:30:37;;;;;;;;;;;10.10;99.90;;;;;;5027452;28;19933;-76
2023/02/19 02:33:06;;;;;;;;;;;10.10;99.90;;;;;;5027244;28;19925;-75
2023/02/19 02:35:35;;;;;;;;;;;10.10;99.90;;;;;;5029357;28;19924;-75
2023/02/19 02:38:04;;;;;;;;;;;10.10;99.90;;;;;;5026986;28;19952;-75
2023/02/19 02:40:31;;;;;;;;;;;10.10;99.90;;;;;;5028591;28;20388;-76
2023/02/19 02:42:59;;;;;;;;;;;10.10;99.90;;;;;;5026643;28;19933;-76
2023/02/19 02:45:37;;;;;;;;;;;10.10;99.90;;;;;;5027400;28;19929;-74
2023/02/19 02:48:07;;;;;;;;;;;10.10;99.90;;;;;;5030482;28;19957;-75
2023/02/19 02:50:36;;;;;;;;;;;10.10;99.90;;;;;;5030793;28;20303;-74
2023/02/19 02:55:52;;;;;;;;;;;10.10;99.90;;;;;;5025525;28;19939;-75
2023/02/19 02:58:20;;;;;;;;;;;10.00;99.90;;;;;;5026453;28;19935;-74
2023/02/19 03:03:35;;;;;;;;;;;10.00;99.90;;;;;;5021757;28;19961;-76
2023/02/19 03:06:05;;;;;;;;;;;10.00;99.90;;;;;;5029277;28;19932;-76
2023/02/19 03:08:34;;;;;;;;;;;10.00;99.90;;;;;;5025985;28;20014;-76
2023/02/19 03:19:17;;;;;;;;;;;10.00;99.90;;;;;;5030135;28;19929;-75
2023/02/19 03:19:24;;;;;;;;;;;10.00;99.90;;;;;;5028190;28;19951;-75
2023/02/19 03:21:54;;;;;;;;;;;10.00;99.90;;;;;;5029400;28;20436;-75
2023/02/19 03:27:07;;;;;;;;;;;10.00;99.90;;;;;;5026109;28;19940;-75
2023/02/19 03:29:36;;;;;;;;;;;10.00;99.90;;;;;;5027248;28;19925;-75
2023/02/19 03:32:05;;;;;;;;;;;10.00;99.90;;;;;;5025653;28;19929;-73
2023/02/19 03:34:35;;;;;;;;;;;10.00;99.90;;;;;;5027355;28;20041;-75
2023/02/19 03:37:06;;;;;;;;;;;10.00;99.90;;;;;;5027968;28;19976;-74
2023/02/19 03:39:43;;;;;;;;;;;10.00;99.90;;;;;;5028115;28;19932;-74
2023/02/19 03:42:14;;;;;;;;;;;10.00;99.90;;;;;;5028315;28;19932;-74
2023/02/19 03:44:42;;;;;;;;;;;10.00;99.90;;;;;;5030386;28;19935;-75
2023/02/19 03:47:14;;;;;;;;;;;9.90;99.90;;;;;;5034128;28;20012;-75
2023/02/19 03:49:43;;;;;;;;;;;10.00;99.90;;;;;;5028234;28;19929;-73
2023/02/19 03:52:15;;;;;;;;;;;10.00;99.90;;;;;;5028608;28;19937;-75
2023/02/19 03:54:46;;;;;;;;;;;10.00;99.90;;;;;;5029565;28;19932;-76
2023/02/19 03:57:16;;;;;;;;;;;9.90;99.90;;;;;;5029373;28;19935;-76
2023/02/19 03:59:44;;;;;;;;;;;10.00;99.90;;;;;;5030532;28;19931;-76
2023/02/19 04:02:13;;;;;;;;;;;10.00;99.90;;;;;;5032219;28;19936;-76
2023/02/19 04:04:43;;;;;;;;;;;10.00;99.90;;;;;;5032523;28;19933;-76
2023/02/19 04:07:11;;;;;;;;;;;10.00;99.90;;;;;;5031988;28;19925;-76
2023/02/19 04:09:39;;;;;;;;;;;10.00;99.90;;;;;;5033436;28;19929;-75
2023/02/19 04:12:06;;;;;;;;;;;10.00;99.90;;;;;;5033471;28;19940;-76
2023/02/19 04:14:36;;;;;;;;;;;10.00;99.90;;;;;;5032944;28;19943;-76
2023/02/19 04:17:05;;;;;;;;;;;10.00;99.90;;;;;;5033364;28;19944;-77
2023/02/19 04:19:33;;;;;;;;;;;10.00;99.90;;;;;;5031360;28;19931;-75
2023/02/19 04:22:00;;;;;;;;;;;10.00;99.90;;;;;;5028060;28;20015;-75
2023/02/19 04:24:31;;;;;;;;;;;10.00;99.90;;;;;;5028281;28;19929;-75
2023/02/19 04:26:58;;;;;;;;;;;10.00;99.90;;;;;;5029204;28;19999;-74
2023/02/19 04:29:25;;;;;;;;;;;10.00;99.90;;;;;;5030297;28;20303;-74
2023/02/19 04:31:51;;;;;;;;;;;10.00;99.90;;;;;;5032854;28;20319;-72
2023/02/19 04:34:18;;;;;;;;;;;10.00;99.90;;;;;;5030946;28;19933;-75
2023/02/19 04:36:45;;;;;;;;;;;10.00;99.90;;;;;;5030124;28;19924;-74
2023/02/19 04:39:11;;;;;;;;;;;10.00;99.90;;;;;;5031790;28;20019;-75
2023/02/19 04:41:39;;;;;;;;;;;10.00;99.90;;;;;;5032740;28;19928;-75
2023/02/19 04:44:06;;;;;;;;;;;10.00;99.90;;;;;;5031407;28;20394;-74
2023/02/19 04:46:33;;;;;;;;;;;10.00;99.90;;;;;;5029905;28;20367;-74
2023/02/19 04:48:59;;;;;;;;;;;10.00;99.90;;;;;;5027328;28;19939;-74
2023/02/19 04:51:26;;;;;;;;;;;10.00;99.90;;;;;;5031577;28;19925;-76
2023/02/19 04:53:55;;;;;;;;;;;10.00;99.90;;;;;;5029503;28;19937;-75
2023/02/19 04:56:21;;;;;;;;;;;10.00;99.90;;;;;;5028917;28;19925;-74
2023/02/19 04:58:49;;;;;;;;;;;10.00;99.90;;;;;;5035933;28;20478;-75
2023/02/19 05:01:16;;;;;;;;;;;9.90;99.90;;;;;;5044087;28;20039;-76
2023/02/19 05:03:43;;;;;;;;;;;9.90;99.90;;;;;;5028233;28;19932;-74
2023/02/19 05:06:11;;;;;;;;;;;9.90;99.90;;;;;;5025905;28;19929;-73
2023/02/19 05:08:38;;;;;;;;;;;9.90;99.90;;;;;;5027023;28;19932;-74
2023/02/19 05:11:05;;;;;;;;;;;9.90;99.90;;;;;;5026633;28;19935;-74
2023/02/19 05:13:32;;;;;;;;;;;9.90;99.90;;;;;;5030459;28;19959;-74
2023/02/19 05:16:01;;;;;;;;;;;9.90;99.90;;;;;;5029929;28;19925;-74
2023/02/19 05:18:29;;;;;;;;;;;9.90;99.90;;;;;;5030140;28;20023;-75
2023/02/19 05:20:57;;;;;;;;;;;9.90;99.90;;;;;;5028628;28;19932;-74
2023/02/19 05:23:24;;;;;;;;;;;9.80;99.90;;;;;;5028577;28;19929;-76
2023/02/19 05:25:51;;;;;;;;;;;9.90;99.90;;;;;;5030587;28;19935;-74
2023/02/19 05:28:18;;;;;;;;;;;9.80;99.90;;;;;;5028384;28;19952;-75
2023/02/19 05:30:45;;;;;;;;;;;9.80;99.90;;;;;;5026525;28;19960;-75
2023/02/19 05:33:13;;;;;;;;;;;9.80;99.90;;;;;;5029586;28;19929;-74
2023/02/19 05:35:41;;;;;;;;;;;9.80;99.90;;;;;;5030209;28;19929;-77
2023/02/19 05:38:08;;;;;;;;;;;9.80;99.90;;;;;;5025782;28;19936;-75
2023/02/19 05:40:34;;;;;;;;;;;9.80;99.90;;;;;;5028048;28;20656;-75
2023/02/19 05:43:01;;;;;;;;;;;9.80;99.90;;;;;;5028854;28;20283;-76
2023/02/19 05:45:27;;;;;;;;;;;9.80;99.90;;;;;;5029117;28;21678;-74
2023/02/19 05:47:54;;;;;;;;;;;9.80;99.90;;;;;;5026217;28;20475;-75
2023/02/19 05:50:23;;;;;;;;;;;9.80;99.90;;;;;;5026570;28;20402;-75
2023/02/19 05:52:49;;;;;;;;;;;9.80;99.90;;;;;;5027736;28;19928;-76
2023/02/19 05:55:16;;;;;;;;;;;9.70;99.90;;;;;;5025790;28;19976;-74
2023/02/19 05:57:43;;;;;;;;;;;9.70;99.90;;;;;;5027075;28;19952;-75
2023/02/19 06:00:11;;;;;;;;;;;9.70;99.90;;;;;;5026727;28;19935;-76
2023/02/19 06:02:38;;;;;;;;;;;9.80;99.90;;;;;;5026172;28;19933;-74
2023/02/19 06:05:05;;;;;;;;;;;9.80;99.90;;;;;;5030145;28;19936;-73
2023/02/19 06:07:34;;;;;;;;;;;9.70;99.90;;;;;;5028199;28;19932;-76
2023/02/19 06:10:01;;;;;;;;;;;9.70;99.90;;;;;;5031996;28;19925;-75
2023/02/19 06:12:28;;;;;;;;;;;9.70;99.90;;;;;;5033203;28;19933;-75
2023/02/19 06:14:55;;;;;;;;;;;9.70;99.90;;;;;;5029746;28;20462;-75
2023/02/19 06:17:21;;;;;;;;;;;9.70;99.90;;;;;;5029662;28;19929;-76
2023/02/19 06:19:48;;;;;;;;;;;9.70;99.90;;;;;;5026752;28;20026;-75
2023/02/19 06:22:15;;;;;;;;;;;9.70;99.90;;;;;;5025638;28;19925;-75
2023/02/19 06:24:44;;;;;;;;;;;9.80;99.90;;;;;;5027908;28;19924;-74
2023/02/19 06:27:10;;;;;;;;;;;9.70;99.90;;;;;;5028899;28;20043;-75
2023/02/19 06:29:38;;;;;;;;;;;9.70;99.90;;;;;;5028361;28;19939;-74
2023/02/19 06:32:05;;;;;;;;;;;9.70;99.90;;;;;;5027568;28;19949;-74
2023/02/19 06:34:32;;;;;;;;;;;9.70;99.90;;;;;;5033575;28;19933;-75
2023/02/19 06:36:59;;;;;;;;;;;9.70;99.90;;;;;;5027197;28;19933;-76
2023/02/19 06:39:26;;;;;;;;;;;9.70;99.90;;;;;;5032833;28;19933;-75
2023/02/19 06:41:56;;;;;;;;;;;9.70;99.90;;;;;;5034785;28;20125;-76
2023/02/19 06:44:22;;;;;;;;;;;9.70;99.90;;;;;;5031998;28;20342;-75
2023/02/19 06:46:49;;;;;;;;;;;9.70;99.90;;;;;;5028923;28;20552;-75
2023/02/19 06:49:16;;;;;;;;;;;9.70;99.90;;;;;;5025662;28;20294;-74
2023/02/19 06:51:42;;;;;;;;;;;9.70;99.90;;;;;;5029666;28;19939;-75
2023/02/19 06:54:09;;;;;;;;;;;9.70;99.90;;;;;;5027788;28;19933;-75
2023/02/19 06:56:37;;;;;;;;;;;9.70;99.90;;;;;;5026729;28;19933;-75
2023/02/19 06:59:06;;;;;;;;;;;9.70;99.90;;;;;;5028109;28;19933;-75
2023/02/19 07:01:34;;;;;;;;;;;9.70;99.90;;;;;;5027316;28;19925;-75
2023/02/19 07:04:01;;;;;;;;;;;9.70;99.90;;;;;;5028571;28;19956;-75
2023/02/19 07:06:28;;;;;;;;;;;9.80;99.90;;;;;;5027654;28;20306;-74
2023/02/19 07:08:57;;;;;;;;;;;9.70;99.90;;;;;;5031101;28;19925;-75
2023/02/19 07:11:24;;;;;;;;;;;9.70;99.90;;;;;;5027846;28;19933;-76
2023/02/19 07:13:54;;;;;;;;;;;9.80;99.90;;;;;;5026338;28;20295;-75
2023/02/19 07:16:22;;;;;;;;;;;9.80;99.90;;;;;;5026568;28;19940;-74
2023/02/19 07:18:49;;;;;;;;;;;9.80;99.90;;;;;;5023747;28;19935;-76
2023/02/19 07:21:16;;;;;;;;;;;9.80;99.90;;;;;;5030980;28;20030;-76
2023/02/19 07:23:43;;;;;;;;;;;9.80;99.90;;;;;;5029201;28;19939;-76
2023/02/19 07:26:11;;;;;;;;;;;9.80;99.90;;;;;;5026000;28;19932;-75
2023/02/19 07:28:37;;;;;;;;;;;9.80;99.90;;;;;;5025709;28;20361;-74
2023/02/19 07:31:04;;;;;;;;;;;9.80;99.90;;;;;;5024029;28;20019;-76
2023/02/19 07:33:32;;;;;;;;;;;9.80;99.90;;;;;;5027366;28;20959;-75
2023/02/19 07:35:59;;;;;;;;;;;9.80;99.90;;;;;;5025945;28;20366;-77
2023/02/19 07:38:26;;;;;;;;;;;9.90;99.90;;;;;;5028004;28;20362;-76
2023/02/19 07:40:54;;;;;;;;;;;9.80;99.90;;;;;;5027052;28;19936;-76
2023/02/19 07:43:21;;;;;;;;;;;9.80;99.90;;;;;;5023187;28;20421;-75
2023/02/19 07:45:48;;;;;;;;;;;9.80;99.90;;;;;;5026496;28;20035;-75
2023/02/19 07:48:14;;;;;;;;;;;9.80;99.90;;;;;;5025550;28;19974;-75
2023/02/19 07:50:43;;;;;;;;;;;9.80;99.90;;;;;;5027027;28;19984;-73
2023/02/19 07:53:09;;;;;;;;;;;9.80;99.90;;;;;;5026948;28;20460;-76
2023/02/19 07:55:36;;;;;;;;;;;9.90;99.90;;;;;;5026596;28;19935;-75
2023/02/19 07:58:02;;;;;;;;;;;9.80;99.90;;;;;;5026350;28;20388;-74
2023/02/19 08:00:29;;;;;;;;;;;9.80;99.90;;;;;;5026130;28;19943;-76
2023/02/19 08:03:02;;;;;;;;;;;9.90;99.90;;;;;;5024745;28;19932;-75
2023/02/19 08:05:30;;;;;;;;;;;9.80;99.90;;;;;;5027540;28;19929;-75
2023/02/19 08:07:58;;;;;;;;;;;9.80;99.90;;;;;;5029783;28;20300;-76
2023/02/19 08:13:21;;;;;;;;;;;9.80;99.90;;;;;;5024054;28;20030;-77
2023/02/19 08:15:49;;;;;;;;;;;9.80;99.90;;;;;;5023877;28;22833;-75
2023/02/19 08:18:16;;;;;;;;;;;9.90;99.90;;;;;;5025852;28;19935;-77
2023/02/19 08:20:43;;;;;;;;;;;9.80;99.90;;;;;;5027002;28;19936;-75
2023/02/19 08:23:12;;;;;;;;;;;9.90;99.90;;;;;;5028127;28;20012;-75
2023/02/19 08:25:39;;;;;;;;;;;9.90;99.90;;;;;;5029070;28;20363;-76
2023/02/19 08:28:09;;;;;;;;;;;9.90;99.90;;;;;;5025990;28;19995;-76
2023/02/19 08:30:36;;;;;;;;;;;9.90;99.90;;;;;;5031209;28;20355;-76
2023/02/19 08:33:04;;;;;;;;;;;10.00;99.90;;;;;;5031644;28;19940;-75
2023/02/19 08:35:31;;;;;;;;;;;10.00;99.90;;;;;;5030176;28;19929;-74
2023/02/19 08:37:58;;;;;;;;;;;10.10;99.90;;;;;;5030083;28;19929;-75
2023/02/19 08:40:26;;;;;;;;;;;10.10;99.90;;;;;;5031065;28;19932;-77
2023/02/19 08:42:53;;;;;;;;;;;10.10;99.90;;;;;;5025744;28;20016;-75
2023/02/19 08:45:21;;;;;;;;;;;10.10;99.90;;;;;;5032406;28;20151;-75
2023/02/19 08:47:48;;;;;;;;;;;10.10;99.90;;;;;;5026540;28;19933;-75
2023/02/19 08:50:15;;;;;;;;;;;10.20;99.90;;;;;;5028380;28;19986;-73
2023/02/19 08:52:42;;;;;;;;;;;10.30;99.90;;;;;;5024706;28;19933;-74
2023/02/19 08:55:09;;;;;;;;;;;10.30;99.90;;;;;;5027704;28;20341;-73
2023/02/19 08:57:37;;;;;;;;;;;10.30;99.90;;;;;;5024492;28;20035;-73
2023/02/19 09:00:05;;;;;;;;;;;10.30;99.90;;;;;;5026450;28;20351;-73
2023/02/19 09:02:31;;;;;;;;;;;10.30;99.90;;;;;;5025134;28;20063;-73
2023/02/19 09:04:58;;;;;;;;;;;10.40;99.90;;;;;;5026420;28;20355;-73
2023/02/19 09:07:25;;;;;;;;;;;10.40;99.90;;;;;;5025203;28;20032;-73
2023/02/19 09:09:52;;;;;;;;;;;10.50;99.90;;;;;;5025135;28;19995;-73
2023/02/19 09:12:19;;;;;;;;;;;10.50;99.90;;;;;;5027371;28;20066;-74
2023/02/19 09:14:47;;;;;;;;;;;10.50;99.90;;;;;;5030308;28;19936;-74
2023/02/19 09:17:14;;;;;;;;;;;10.50;99.90;;;;;;5028163;28;19933;-74
2023/02/19 09:19:40;;;;;;;;;;;10.50;99.90;;;;;;5030995;28;19960;-72
2023/02/19 09:22:07;;;;;;;;;;;10.40;99.90;;;;;;5031626;28;19963;-74
2023/02/19 09:24:34;;;;;;;;;;;10.40;99.90;;;;;;5028392;28;19935;-75
2023/02/19 09:27:01;;;;;;;;;;;10.30;99.90;;;;;;5029811;28;20024;-75
2023/02/19 09:29:28;;;;;;;;;;;10.30;99.90;;;;;;5027490;28;19956;-73
2023/02/19 09:32:00;;;;;;;;;;;10.40;99.90;;;;;;5028776;28;19979;-74
2023/02/19 09:34:30;;;;;;;;;;;10.40;99.90;;;;;;5031101;28;19956;-74
2023/02/19 09:36:57;;;;;;;;;;;10.50;99.90;;;;;;5025149;28;19929;-73
2023/02/19 09:39:23;;;;;;;;;;;10.50;99.90;;;;;;5027800;28;19924;-74
2023/02/19 09:41:52;;;;;;;;;;;10.50;99.90;;;;;;5026114;28;20052;-74
2023/02/19 09:44:23;;;;;;;;;;;10.50;99.90;;;;;;5028965;28;20688;-74
2023/02/19 09:46:51;;;;;;;;;;;10.60;99.90;;;;;;5026301;28;19932;-74
2023/02/19 09:49:20;;;;;;;;;;;10.50;99.90;;;;;;5028110;28;20413;-74
2023/02/19 09:51:48;;;;;;;;;;;10.50;99.90;;;;;;5027199;28;19928;-74
2023/02/19 09:54:19;;;;;;;;;;;10.40;99.90;;;;;;5027260;28;19925;-74
2023/02/19 09:56:46;;;;;;;;;;;10.50;99.90;;;;;;5027473;28;20024;-74
2023/02/19 09:59:15;;;;;;;;;;;10.60;99.90;;;;;;5027367;28;19932;-74
2023/02/19 10:01:43;;;;;;;;;;;10.50;99.90;;;;;;5027084;28;19932;-73
2023/02/19 10:04:10;;;;;;;;;;;10.60;99.90;;;;;;5027955;28;19925;-73
2023/02/19 10:06:38;;;;;;;;;;;10.60;99.90;;;;;;5028403;28;19929;-73
2023/02/19 10:09:21;;;;;;;;;;;10.70;99.90;;;;;;5027247;28;20016;-74
2023/02/19 10:11:48;;;;;;;;;;;10.70;99.90;;;;;;5025620;28;19932;-73
2023/02/19 10:14:17;;;;;;;;;;;10.80;99.90;;;;;;5027375;28;19925;-74
2023/02/19 10:16:45;;;;;;;;;;;11.00;99.90;;;;;;5023405;28;19933;-75
2023/02/19 10:19:12;;;;;;;;;;;11.00;99.90;;;;;;5025682;28;20035;-76
2023/02/19 10:21:40;;;;;;;;;;;11.00;99.90;;;;;;5024829;28;19925;-76
2023/02/19 10:24:08;;;;;;;;;;;10.90;99.90;;;;;;5025411;28;20491;-75
2023/02/19 10:26:35;;;;;;;;;;;10.90;99.90;;;;;;5023477;28;20027;-76
2023/02/19 10:29:02;;;;;;;;;;;11.00;99.90;;;;;;5026342;28;20343;-74
2023/02/19 10:31:31;;;;;;;;;;;11.00;99.90;;;;;;5023501;28;20032;-75
2023/02/19 10:33:59;;;;;;;;;;;11.10;99.90;;;;;;5023139;28;19929;-73
2023/02/19 10:36:28;;;;;;;;;;;11.20;99.90;;;;;;5024619;28;19983;-74
2023/02/19 10:38:56;;;;;;;;;;;11.30;99.90;;;;;;5027747;28;19983;-74
2023/02/19 10:41:24;;;;;;;;;;;11.20;99.90;;;;;;5028560;28;20313;-75
2023/02/19 10:43:53;;;;;;;;;;;11.10;99.90;;;;;;5028267;28;20411;-76
2023/02/19 10:46:21;;;;;;;;;;;11.00;99.90;;;;;;5027697;28;20579;-75
2023/02/19 10:48:51;;;;;;;;;;;10.90;99.90;;;;;;5027373;28;19924;-74
2023/02/19 10:51:20;;;;;;;;;;;10.90;99.90;;;;;;5026402;28;19925;-75
2023/02/19 10:53:48;;;;;;;;;;;10.90;99.90;;;;;;5025615;28;19928;-75
2023/02/19 10:56:22;;;;;;;;;;;11.00;99.90;;;;;;5025909;28;19932;-75
2023/02/19 10:58:49;;;;;;;;;;;11.00;99.90;;;;;;5025428;28;19932;-75
2023/02/19 11:01:19;;;;;;;;;;;11.00;99.90;;;;;;5026403;28;19933;-75
2023/02/19 11:03:47;;;;;;;;;;;11.00;99.90;;;;;;5026973;28;19933;-75
2023/02/19 11:06:15;;;;;;;;;;;11.00;99.90;;;;;;5027100;28;19929;-75
2023/02/19 11:08:49;;;;;;;;;;;11.00;99.90;;;;;;5026199;28;20504;-74
2023/02/19 11:11:25;;;;;;;;;;;11.00;99.90;;;;;;5027044;28;19939;-72
2023/02/19 11:13:53;;;;;;;;;;;10.80;99.90;;;;;;5027198;28;19932;-74
2023/02/19 11:16:20;;;;;;;;;;;10.70;99.90;;;;;;5025494;28;20315;-73
2023/02/19 11:18:54;;;;;;;;;;;10.70;99.90;;;;;;5026365;28;19939;-76
2023/02/19 11:21:26;;;;;;;;;;;10.60;99.90;;;;;;5030310;28;19925;-76
2023/02/19 11:23:55;;;;;;;;;;;10.50;99.90;;;;;;5022677;28;20016;-77
2023/02/19 11:26:22;;;;;;;;;;;10.60;99.90;;;;;;5026848;28;19931;-76
2023/02/19 11:28:56;;;;;;;;;;;10.50;99.90;;;;;;5026904;28;20018;-76
2023/02/19 11:31:24;;;;;;;;;;;10.60;99.90;;;;;;5023423;28;21382;-75
2023/02/19 11:33:54;;;;;;;;;;;10.70;99.90;;;;;;5028092;28;20018;-77
2023/02/19 11:36:32;;;;;;;;;;;10.60;99.90;;;;;;5027916;28;20428;-77
2023/02/19 11:38:59;;;;;;;;;;;10.50;99.90;;;;;;5025432;28;19933;-77
2023/02/19 11:41:47;;;;;;;;;;;10.50;99.90;;;;;;5027177;28;20024;-77
2023/02/19 11:44:24;;;;;;;;;;;10.50;99.90;;;;;;5026972;28;20019;-78
2023/02/19 11:46:56;;;;;;;;;;;10.40;99.90;;;;;;5026302;28;19986;-75
2023/02/19 11:49:28;;;;;;;;;;;10.40;99.90;;;;;;5028792;28;19956;-75
2023/02/19 11:52:05;;;;;;;;;;;10.40;99.90;;;;;;5028930;28;19925;-75
2023/02/19 11:54:38;;;;;;;;;;;10.50;99.90;;;;;;5029929;28;19929;-75
2023/02/19 11:57:09;;;;;;;;;;;10.50;99.90;;;;;;5026372;28;19964;-74
2023/02/19 11:59:42;;;;;;;;;;;10.50;99.90;;;;;;5029697;28;20095;-76
2023/02/19 12:02:24;;;;;;;;;;;10.50;99.90;;;;;;5031538;28;19935;-76
2023/02/19 12:05:09;;;;;;;;;;;10.40;99.90;;;;;;5030588;28;20020;-75
2023/02/19 12:07:49;;;;;;;;;;;10.30;99.90;;;;;;5029451;28;19933;-75
2023/02/19 12:10:20;;;;;;;;;;;10.40;99.90;;;;;;5030796;28;19976;-74
2023/02/19 12:12:52;;;;;;;;;;;10.40;99.90;;;;;;5030874;28;20097;-76
2023/02/19 12:15:36;;;;;;;;;;;10.40;99.90;;;;;;5032306;28;20603;-76
2023/02/19 12:18:12;;;;;;;;;;;10.50;99.90;;;;;;5014373;28;20028;-75
2023/02/19 12:20:43;;;;;;;;;;;10.60;99.90;;;;;;5032824;28;19960;-73
2023/02/19 12:23:31;;;;;;;;;;;10.70;99.90;;;;;;5030138;28;19933;-75
2023/02/19 12:26:00;;;;;;;;;;;10.80;99.90;;;;;;5006288;28;20017;-72
2023/02/19 12:28:36;;;;;;;;;;;10.80;99.90;;;;;;5029432;28;19925;-72
2023/02/19 12:31:10;;;;;;;;;;;10.90;99.90;;;;;;5026226;28;20334;-71
2023/02/19 12:33:50;;;;;;;;;;;10.90;99.90;;;;;;5029443;28;20557;-71
2023/02/19 12:36:21;;;;;;;;;;;10.90;99.90;;;;;;5027097;28;19933;-71
2023/02/19 12:38:53;;;;;;;;;;;10.90;99.90;;;;;;5028582;28;19925;-71
2023/02/19 12:41:26;;;;;;;;;;;10.80;99.90;;;;;;5030937;28;20389;-71
2023/02/19 12:43:55;;;;;;;;;;;10.90;99.90;;;;;;5022858;28;20031;-72
2023/02/19 12:46:25;;;;;;;;;;;10.80;99.90;;;;;;5028256;28;20020;-71
2023/02/19 12:48:57;;;;;;;;;;;10.80;99.90;;;;;;5028709;28;20083;-71
2023/02/19 12:51:26;;;;;;;;;;;10.80;99.90;;;;;;5036602;28;19925;-72
2023/02/19 12:53:55;;;;;;;;;;;10.60;99.90;;;;;;5033200;28;20379;-74
2023/02/19 12:56:25;;;;;;;;;;;10.60;99.90;;;;;;5024958;28;20396;-73
2023/02/19 12:58:54;;;;;;;;;;;10.70;99.90;;;;;;5027712;28;21087;-74
2023/02/19 13:01:24;;;;;;;;;;;10.80;99.90;;;;;;5031655;28;20423;-73
2023/02/19 13:03:53;;;;;;;;;;;10.80;99.90;;;;;;5027773;28;19961;-72
2023/02/19 13:06:26;;;;;;;;;;;10.90;99.90;;;;;;5027589;28;20418;-72
2023/02/19 13:08:57;;;;;;;;;;;10.90;99.90;;;;;;5029365;28;19933;-73
2023/02/19 13:11:27;;;;;;;;;;;10.90;99.90;;;;;;5027021;28;19962;-77
2023/02/19 13:13:57;;;;;;;;;;;10.90;99.90;;;;;;5028793;28;20318;-73
2023/02/19 13:16:25;;;;;;;;;;;10.70;99.90;;;;;;5027918;28;19967;-73
2023/02/19 13:18:53;;;;;;;;;;;10.70;99.90;;;;;;5027131;28;19929;-73
2023/02/19 13:24:06;;;;;;;;;;;10.50;99.90;;;;;;5025273;28;19945;-72
2023/02/19 13:26:43;;;;;;;;;;;10.50;99.90;;;;;;5028125;28;20037;-73
2023/02/19 13:29:15;;;;;;;;;;;10.40;99.90;;;;;;5028906;28;19929;-74
2023/02/19 13:31:53;;;;;;;;;;;10.30;99.90;;;;;;5027604;28;19943;-71
2023/02/19 13:34:24;;;;;;;;;;;10.30;99.90;;;;;;5029872;28;19953;-70
2023/02/19 13:36:51;;;;;;;;;;;10.20;99.90;;;;;;5028471;28;19937;-72
2023/02/19 13:39:20;;;;;;;;;;;10.30;99.90;;;;;;5031313;28;19932;-72
2023/02/19 13:41:49;;;;;;;;;;;10.20;99.90;;;;;;5025762;28;19939;-75
2023/02/19 13:44:18;;;;;;;;;;;10.00;99.90;;;;;;5024941;28;19957;-74
2023/02/19 13:46:45;;;;;;;;;;;9.90;99.90;;;;;;5028470;28;19975;-75
2023/02/19 13:49:42;;;;;;;;;;;9.90;99.90;;;;;;5035548;28;19924;-74
2023/02/19 13:52:27;;;;;;;;;;;10.00;99.90;;;;;;5036879;28;19929;-73
2023/02/19 13:55:23;;;;;;;;;;;10.00;99.90;;;;;;5025982;28;20051;-75
2023/02/19 13:57:50;;;;;;;;;;;10.00;99.90;;;;;;5028570;28;19929;-73
2023/02/19 14:00:38;;;;;;;;;;;9.90;99.90;;;;;;5033140;28;20808;-75
2023/02/19 14:03:19;;;;;;;;;;;9.90;99.90;;;;;;5024205;28;20372;-76
2023/02/19 14:05:57;;;;;;;;;;;9.80;99.90;;;;;;5029190;28;19928;-78
2023/02/19 14:08:39;;;;;;;;;;;9.70;99.90;;;;;;5026125;28;19932;-75
2023/02/19 14:11:07;;;;;;;;;;;9.60;99.90;;;;;;5028548;28;19994;-75
2023/02/19 14:13:53;;;;;;;;;;;9.60;99.90;;;;;;5028359;28;19975;-76
2023/02/19 14:16:30;;;;;;;;;;;9.60;99.90;;;;;;5028748;28;19944;-73
2023/02/19 14:18:58;;;;;;;;;;;9.50;99.90;;;;;;5026534;28;20415;-76
2023/02/19 14:21:26;;;;;;;;;;;9.60;99.90;;;;;;5025346;28;19939;-75
2023/02/19 14:23:55;;;;;;;;;;;9.60;99.90;;;;;;5029598;28;19932;-76
2023/02/19 14:26:24;;;;;;;;;;;9.60;99.90;;;;;;5028667;28;19929;-76
2023/02/19 14:28:51;;;;;;;;;;;9.70;99.90;;;;;;5027973;28;19933;-74
2023/02/19 14:31:20;;;;;;;;;;;9.60;99.90;;;;;;5026967;28;19968;-75
2023/02/19 14:33:48;;;;;;;;;;;9.70;99.90;;;;;;5028127;28;19929;-75
2023/02/19 14:36:23;;;;;;;;;;;9.70;99.90;;;;;;5026838;28;20373;-73
2023/02/19 14:38:51;;;;;;;;;;;9.80;99.90;;;;;;5030473;28;20281;-74
2023/02/19 14:41:19;;;;;;;;;;;9.80;99.90;;;;;;5028357;28;20529;-75
2023/02/19 14:43:49;;;;;;;;;;;9.70;99.90;;;;;;5024469;28;20005;-75
2023/02/19 14:46:18;;;;;;;;;;;9.70;99.90;;;;;;5028300;28;19933;-78
2023/02/19 14:48:46;;;;;;;;;;;9.60;99.90;;;;;;5029245;28;19933;-76
2023/02/19 14:51:15;;;;;;;;;;;9.50;99.90;;;;;;5028884;28;19928;-77
2023/02/19 14:53:43;;;;;;;;;;;9.40;99.90;;;;;;5029338;28;19935;-75
2023/02/19 14:56:18;;;;;;;;;;;9.30;99.90;;;;;;5029119;28;19929;-75